sensor_id;sensor_type;location;lat;lon;timestamp;P1;durP1;ratioP1;P2;durP2;ratioP2
64395;SDS011;50717;53.360;6.290;2022-12-04T00:00:17;49.00;;;24.15;;
64395;SDS011;50717;53.360;6.290;2022-12-04T00:02:43;53.25;;;25.63;;
64395;SDS011;50717;53.360;6.290;2022-12-04T00:05:09;53.17;;;24.42;;
64395;SDS011;50717;53.360;6.290;2022-12-04T00:07:35;57.58;;;24.92;;
64395;SDS011;50717;53.360;6.290;2022-12-04T00:10:01;56.72;;;26.20;;
64395;SDS011;50717;53.360;6.290;2022-12-04T00:12:27;53.35;;;23.90;;
64395;SDS011;50717;53.360;6.290;2022-12-04T00:14:53;47.50;;;22.42;;
64395;SDS011;50717;53.360;6.290;2022-12-04T00:17:19;54.25;;;25.02;;
64395;SDS011;50717;53.360;6.290;2022-12-04T00:19:45;53.78;;;23.52;;
64395;SDS011;50717;53.360;6.290;2022-12-04T00:22:11;54.83;;;24.50;;
64395;SDS011;50717;53.360;6.290;2022-12-04T00:24:38;51.92;;;25.85;;
64395;SDS011;50717;53.360;6.290;2022-12-04T00:27:04;51.67;;;23.88;;
64395;SDS011;50717;53.360;6.290;2022-12-04T00:29:30;42.95;;;21.52;;
64395;SDS011;50717;53.360;6.290;2022-12-04T00:31:56;48.70;;;21.07;;
64395;SDS011;50717;53.360;6.290;2022-12-04T00:34:21;52.15;;;21.83;;
64395;SDS011;50717;53.360;6.290;2022-12-04T00:36:47;49.88;;;21.30;;
64395;SDS011;50717;53.360;6.290;2022-12-04T00:39:13;52.00;;;22.38;;
64395;SDS011;50717;53.360;6.290;2022-12-04T00:41:39;49.50;;;22.08;;
64395;SDS011;50717;53.360;6.290;2022-12-04T00:44:05;50.50;;;21.15;;
64395;SDS011;50717;53.360;6.290;2022-12-04T00:46:31;44.92;;;20.40;;
64395;SDS011;50717;53.360;6.290;2022-12-04T00:48:58;44.35;;;21.02;;
64395;SDS011;50717;53.360;6.290;2022-12-04T00:51:27;50.45;;;21.27;;
64395;SDS011;50717;53.360;6.290;2022-12-04T00:53:53;44.40;;;20.65;;
64395;SDS011;50717;53.360;6.290;2022-12-04T00:56:22;53.35;;;22.83;;
64395;SDS011;50717;53.360;6.290;2022-12-04T00:58:52;52.60;;;22.77;;
64395;SDS011;50717;53.360;6.290;2022-12-04T01:01:19;44.03;;;19.23;;
64395;SDS011;50717;53.360;6.290;2022-12-04T01:03:46;46.75;;;20.02;;
64395;SDS011;50717;53.360;6.290;2022-12-04T01:06:23;47.83;;;20.45;;
64395;SDS011;50717;53.360;6.290;2022-12-04T01:08:50;47.65;;;19.85;;
64395;SDS011;50717;53.360;6.290;2022-12-04T01:11:17;44.53;;;19.35;;
64395;SDS011;50717;53.360;6.290;2022-12-04T01:13:44;48.05;;;21.10;;
64395;SDS011;50717;53.360;6.290;2022-12-04T01:16:24;47.25;;;20.67;;
64395;SDS011;50717;53.360;6.290;2022-12-04T01:18:51;45.67;;;20.42;;
64395;SDS011;50717;53.360;6.290;2022-12-04T01:21:17;43.10;;;20.05;;
64395;SDS011;50717;53.360;6.290;2022-12-04T01:23:44;41.67;;;19.23;;
64395;SDS011;50717;53.360;6.290;2022-12-04T01:28:36;49.67;;;20.92;;
64395;SDS011;50717;53.360;6.290;2022-12-04T01:31:03;46.33;;;20.20;;
64395;SDS011;50717;53.360;6.290;2022-12-04T01:33:31;43.42;;;19.10;;
64395;SDS011;50717;53.360;6.290;2022-12-04T01:35:58;53.17;;;20.73;;
64395;SDS011;50717;53.360;6.290;2022-12-04T01:38:26;47.90;;;21.38;;
64395;SDS011;50717;53.360;6.290;2022-12-04T01:40:52;46.67;;;20.98;;
64395;SDS011;50717;53.360;6.290;2022-12-04T01:43:19;46.05;;;19.98;;
64395;SDS011;50717;53.360;6.290;2022-12-04T01:45:46;45.20;;;19.25;;
64395;SDS011;50717;53.360;6.290;2022-12-04T01:50:45;47.00;;;20.13;;
64395;SDS011;50717;53.360;6.290;2022-12-04T01:53:12;47.67;;;20.48;;
64395;SDS011;50717;53.360;6.290;2022-12-04T01:55:38;47.40;;;20.00;;
64395;SDS011;50717;53.360;6.290;2022-12-04T01:58:05;43.92;;;20.95;;
64395;SDS011;50717;53.360;6.290;2022-12-04T02:00:32;46.17;;;20.35;;
64395;SDS011;50717;53.360;6.290;2022-12-04T02:02:58;49.92;;;20.83;;
64395;SDS011;50717;53.360;6.290;2022-12-04T02:05:24;45.80;;;19.95;;
64395;SDS011;50717;53.360;6.290;2022-12-04T02:07:50;47.83;;;20.48;;
64395;SDS011;50717;53.360;6.290;2022-12-04T02:10:17;47.92;;;20.23;;
64395;SDS011;50717;53.360;6.290;2022-12-04T02:19:03;51.17;;;21.40;;
64395;SDS011;50717;53.360;6.290;2022-12-04T02:21:42;49.42;;;20.05;;
64395;SDS011;50717;53.360;6.290;2022-12-04T02:26:49;47.58;;;20.75;;
64395;SDS011;50717;53.360;6.290;2022-12-04T02:35:07;51.70;;;21.38;;
64395;SDS011;50717;53.360;6.290;2022-12-04T02:37:29;52.10;;;20.98;;
64395;SDS011;50717;53.360;6.290;2022-12-04T02:40:19;43.50;;;19.48;;
64395;SDS011;50717;53.360;6.290;2022-12-04T02:42:59;49.50;;;20.98;;
64395;SDS011;50717;53.360;6.290;2022-12-04T02:45:27;50.88;;;19.70;;
64395;SDS011;50717;53.360;6.290;2022-12-04T02:47:55;48.63;;;21.15;;
64395;SDS011;50717;53.360;6.290;2022-12-04T02:50:24;49.33;;;20.90;;
64395;SDS011;50717;53.360;6.290;2022-12-04T02:52:52;46.60;;;20.17;;
64395;SDS011;50717;53.360;6.290;2022-12-04T02:55:30;46.92;;;20.30;;
64395;SDS011;50717;53.360;6.290;2022-12-04T02:58:03;45.63;;;19.80;;
64395;SDS011;50717;53.360;6.290;2022-12-04T03:00:31;55.08;;;22.60;;
64395;SDS011;50717;53.360;6.290;2022-12-04T03:02:58;46.95;;;19.70;;
64395;SDS011;50717;53.360;6.290;2022-12-04T03:06:10;46.80;;;20.33;;
64395;SDS011;50717;53.360;6.290;2022-12-04T03:08:18;47.03;;;19.90;;
64395;SDS011;50717;53.360;6.290;2022-12-04T03:10:50;43.85;;;19.83;;
64395;SDS011;50717;53.360;6.290;2022-12-04T03:13:23;50.60;;;21.00;;
64395;SDS011;50717;53.360;6.290;2022-12-04T03:16:01;47.58;;;20.08;;
64395;SDS011;50717;53.360;6.290;2022-12-04T03:18:30;45.88;;;20.63;;
64395;SDS011;50717;53.360;6.290;2022-12-04T03:21:00;48.08;;;20.35;;
64395;SDS011;50717;53.360;6.290;2022-12-04T03:23:32;49.65;;;21.92;;
64395;SDS011;50717;53.360;6.290;2022-12-04T03:29:25;56.20;;;22.40;;
64395;SDS011;50717;53.360;6.290;2022-12-04T03:32:07;53.17;;;21.00;;
64395;SDS011;50717;53.360;6.290;2022-12-04T03:34:50;50.42;;;21.65;;
64395;SDS011;50717;53.360;6.290;2022-12-04T03:37:22;49.47;;;21.95;;
64395;SDS011;50717;53.360;6.290;2022-12-04T03:39:56;55.50;;;22.90;;
64395;SDS011;50717;53.360;6.290;2022-12-04T03:42:29;52.95;;;22.35;;
64395;SDS011;50717;53.360;6.290;2022-12-04T03:45:04;52.80;;;22.85;;
64395;SDS011;50717;53.360;6.290;2022-12-04T03:50:03;52.72;;;21.73;;
64395;SDS011;50717;53.360;6.290;2022-12-04T03:55:09;54.97;;;22.65;;
64395;SDS011;50717;53.360;6.290;2022-12-04T03:57:40;54.17;;;23.15;;
64395;SDS011;50717;53.360;6.290;2022-12-04T04:02:36;51.40;;;22.42;;
64395;SDS011;50717;53.360;6.290;2022-12-04T04:05:03;51.05;;;23.33;;
64395;SDS011;50717;53.360;6.290;2022-12-04T04:07:32;51.33;;;22.55;;
64395;SDS011;50717;53.360;6.290;2022-12-04T04:10:04;56.45;;;23.15;;
64395;SDS011;50717;53.360;6.290;2022-12-04T04:12:31;56.03;;;23.42;;
64395;SDS011;50717;53.360;6.290;2022-12-04T04:15:11;60.17;;;24.40;;
64395;SDS011;50717;53.360;6.290;2022-12-04T04:17:57;53.17;;;22.88;;
64395;SDS011;50717;53.360;6.290;2022-12-04T04:20:43;55.35;;;23.58;;
64395;SDS011;50717;53.360;6.290;2022-12-04T04:23:30;56.67;;;24.00;;
64395;SDS011;50717;53.360;6.290;2022-12-04T04:26:19;54.97;;;23.60;;
64395;SDS011;50717;53.360;6.290;2022-12-04T04:28:48;56.17;;;23.60;;
64395;SDS011;50717;53.360;6.290;2022-12-04T04:39:33;56.10;;;25.85;;
64395;SDS011;50717;53.360;6.290;2022-12-04T04:42:03;62.38;;;24.80;;
64395;SDS011;50717;53.360;6.290;2022-12-04T04:44:33;60.58;;;26.23;;
64395;SDS011;50717;53.360;6.290;2022-12-04T04:47:05;60.92;;;25.83;;
64395;SDS011;50717;53.360;6.290;2022-12-04T04:49:32;62.30;;;25.55;;
64395;SDS011;50717;53.360;6.290;2022-12-04T04:51:59;66.68;;;26.65;;
64395;SDS011;50717;53.360;6.290;2022-12-04T04:56:52;61.20;;;25.70;;
64395;SDS011;50717;53.360;6.290;2022-12-04T04:59:18;62.60;;;26.33;;
64395;SDS011;50717;53.360;6.290;2022-12-04T05:01:44;57.50;;;25.58;;
64395;SDS011;50717;53.360;6.290;2022-12-04T05:04:11;62.83;;;25.92;;
64395;SDS011;50717;53.360;6.290;2022-12-04T05:06:37;58.80;;;26.10;;
64395;SDS011;50717;53.360;6.290;2022-12-04T05:09:03;59.85;;;24.67;;
64395;SDS011;50717;53.360;6.290;2022-12-04T05:11:29;61.13;;;26.10;;
64395;SDS011;50717;53.360;6.290;2022-12-04T05:13:55;64.15;;;26.38;;
64395;SDS011;50717;53.360;6.290;2022-12-04T05:16:21;61.75;;;28.60;;
64395;SDS011;50717;53.360;6.290;2022-12-04T05:18:48;66.00;;;27.67;;
64395;SDS011;50717;53.360;6.290;2022-12-04T05:21:33;64.68;;;26.38;;
64395;SDS011;50717;53.360;6.290;2022-12-04T05:23:59;65.68;;;28.23;;
64395;SDS011;50717;53.360;6.290;2022-12-04T05:28:51;66.43;;;28.45;;
64395;SDS011;50717;53.360;6.290;2022-12-04T05:31:17;65.85;;;26.98;;
64395;SDS011;50717;53.360;6.290;2022-12-04T05:33:43;62.83;;;27.48;;
64395;SDS011;50717;53.360;6.290;2022-12-04T05:36:09;59.50;;;26.40;;
64395;SDS011;50717;53.360;6.290;2022-12-04T05:38:37;65.32;;;27.98;;
64395;SDS011;50717;53.360;6.290;2022-12-04T05:41:04;69.13;;;27.75;;
64395;SDS011;50717;53.360;6.290;2022-12-04T05:43:30;65.00;;;29.88;;
64395;SDS011;50717;53.360;6.290;2022-12-04T05:46:03;71.32;;;28.67;;
64395;SDS011;50717;53.360;6.290;2022-12-04T05:48:30;71.13;;;29.42;;
64395;SDS011;50717;53.360;6.290;2022-12-04T05:53:22;65.22;;;28.65;;
64395;SDS011;50717;53.360;6.290;2022-12-04T05:58:14;64.97;;;28.55;;
64395;SDS011;50717;53.360;6.290;2022-12-04T06:00:40;62.42;;;28.23;;
64395;SDS011;50717;53.360;6.290;2022-12-04T06:03:06;70.28;;;28.83;;
64395;SDS011;50717;53.360;6.290;2022-12-04T06:05:32;68.22;;;29.02;;
64395;SDS011;50717;53.360;6.290;2022-12-04T06:07:58;71.22;;;27.63;;
64395;SDS011;50717;53.360;6.290;2022-12-04T06:10:24;64.93;;;29.60;;
64395;SDS011;50717;53.360;6.290;2022-12-04T06:12:50;64.65;;;27.75;;
64395;SDS011;50717;53.360;6.290;2022-12-04T06:15:21;65.43;;;27.80;;
64395;SDS011;50717;53.360;6.290;2022-12-04T06:17:47;67.70;;;28.95;;
64395;SDS011;50717;53.360;6.290;2022-12-04T06:20:13;68.85;;;28.30;;
64395;SDS011;50717;53.360;6.290;2022-12-04T06:22:39;68.35;;;28.05;;
64395;SDS011;50717;53.360;6.290;2022-12-04T06:25:06;63.53;;;27.70;;
64395;SDS011;50717;53.360;6.290;2022-12-04T06:27:32;70.85;;;29.65;;
64395;SDS011;50717;53.360;6.290;2022-12-04T06:29:58;76.90;;;30.73;;
64395;SDS011;50717;53.360;6.290;2022-12-04T06:32:24;62.85;;;27.95;;
64395;SDS011;50717;53.360;6.290;2022-12-04T06:34:51;70.50;;;29.30;;
64395;SDS011;50717;53.360;6.290;2022-12-04T06:37:18;70.28;;;29.75;;
64395;SDS011;50717;53.360;6.290;2022-12-04T06:39:44;67.63;;;29.63;;
64395;SDS011;50717;53.360;6.290;2022-12-04T06:42:10;70.30;;;29.10;;
64395;SDS011;50717;53.360;6.290;2022-12-04T06:44:36;73.97;;;29.75;;
64395;SDS011;50717;53.360;6.290;2022-12-04T06:47:02;65.30;;;28.02;;
64395;SDS011;50717;53.360;6.290;2022-12-04T06:49:28;68.15;;;28.70;;
64395;SDS011;50717;53.360;6.290;2022-12-04T06:51:54;69.15;;;28.98;;
64395;SDS011;50717;53.360;6.290;2022-12-04T06:54:20;66.90;;;29.45;;
64395;SDS011;50717;53.360;6.290;2022-12-04T06:56:47;67.50;;;27.95;;
64395;SDS011;50717;53.360;6.290;2022-12-04T06:59:13;68.45;;;28.90;;
64395;SDS011;50717;53.360;6.290;2022-12-04T07:01:39;61.83;;;26.83;;
64395;SDS011;50717;53.360;6.290;2022-12-04T07:04:04;61.30;;;26.98;;
64395;SDS011;50717;53.360;6.290;2022-12-04T07:06:32;66.22;;;27.90;;
64395;SDS011;50717;53.360;6.290;2022-12-04T07:09:19;65.85;;;28.58;;
64395;SDS011;50717;53.360;6.290;2022-12-04T07:11:44;63.42;;;27.80;;
64395;SDS011;50717;53.360;6.290;2022-12-04T07:14:11;62.95;;;27.13;;
64395;SDS011;50717;53.360;6.290;2022-12-04T07:19:03;65.20;;;27.25;;
64395;SDS011;50717;53.360;6.290;2022-12-04T07:21:29;58.92;;;26.63;;
64395;SDS011;50717;53.360;6.290;2022-12-04T07:26:22;63.00;;;27.20;;
64395;SDS011;50717;53.360;6.290;2022-12-04T07:28:48;61.67;;;27.88;;
64395;SDS011;50717;53.360;6.290;2022-12-04T07:31:19;57.30;;;24.45;;
64395;SDS011;50717;53.360;6.290;2022-12-04T07:33:46;61.53;;;26.30;;
64395;SDS011;50717;53.360;6.290;2022-12-04T07:36:14;60.83;;;25.40;;
64395;SDS011;50717;53.360;6.290;2022-12-04T07:38:41;60.08;;;26.88;;
64395;SDS011;50717;53.360;6.290;2022-12-04T07:43:34;62.60;;;25.70;;
64395;SDS011;50717;53.360;6.290;2022-12-04T07:46:05;60.25;;;27.30;;
64395;SDS011;50717;53.360;6.290;2022-12-04T07:48:31;61.83;;;25.83;;
64395;SDS011;50717;53.360;6.290;2022-12-04T07:51:01;52.00;;;18.42;;
64395;SDS011;50717;53.360;6.290;2022-12-04T07:53:27;55.53;;;20.27;;
64395;SDS011;50717;53.360;6.290;2022-12-04T07:55:53;52.90;;;20.17;;
64395;SDS011;50717;53.360;6.290;2022-12-04T07:58:19;56.90;;;20.13;;
64395;SDS011;50717;53.360;6.290;2022-12-04T08:00:45;52.70;;;21.27;;
64395;SDS011;50717;53.360;6.290;2022-12-04T08:03:11;56.30;;;21.70;;
64395;SDS011;50717;53.360;6.290;2022-12-04T08:05:37;55.58;;;22.83;;
64395;SDS011;50717;53.360;6.290;2022-12-04T08:08:03;59.45;;;23.27;;
64395;SDS011;50717;53.360;6.290;2022-12-04T08:10:29;58.80;;;22.98;;
64395;SDS011;50717;53.360;6.290;2022-12-04T08:12:55;57.45;;;22.40;;
64395;SDS011;50717;53.360;6.290;2022-12-04T08:15:21;48.50;;;20.63;;
64395;SDS011;50717;53.360;6.290;2022-12-04T08:17:47;57.90;;;21.73;;
64395;SDS011;50717;53.360;6.290;2022-12-04T08:20:13;58.90;;;22.48;;
64395;SDS011;50717;53.360;6.290;2022-12-04T08:22:39;53.58;;;21.77;;
64395;SDS011;50717;53.360;6.290;2022-12-04T08:25:05;58.35;;;21.52;;
64395;SDS011;50717;53.360;6.290;2022-12-04T08:29:57;52.92;;;21.92;;
64395;SDS011;50717;53.360;6.290;2022-12-04T08:32:23;52.00;;;20.60;;
64395;SDS011;50717;53.360;6.290;2022-12-04T08:34:50;52.17;;;21.00;;
64395;SDS011;50717;53.360;6.290;2022-12-04T08:37:16;47.08;;;20.00;;
64395;SDS011;50717;53.360;6.290;2022-12-04T08:39:43;50.47;;;21.77;;
64395;SDS011;50717;53.360;6.290;2022-12-04T08:42:09;46.33;;;20.75;;
64395;SDS011;50717;53.360;6.290;2022-12-04T08:44:35;56.47;;;20.63;;
64395;SDS011;50717;53.360;6.290;2022-12-04T08:47:01;47.33;;;19.08;;
64395;SDS011;50717;53.360;6.290;2022-12-04T08:49:27;48.63;;;19.17;;
64395;SDS011;50717;53.360;6.290;2022-12-04T08:51:53;45.08;;;19.05;;
64395;SDS011;50717;53.360;6.290;2022-12-04T08:54:19;42.30;;;17.95;;
64395;SDS011;50717;53.360;6.290;2022-12-04T08:56:45;49.47;;;18.60;;
64395;SDS011;50717;53.360;6.290;2022-12-04T08:59:11;45.22;;;18.65;;
64395;SDS011;50717;53.360;6.290;2022-12-04T09:01:38;49.22;;;20.13;;
64395;SDS011;50717;53.360;6.290;2022-12-04T09:04:04;44.25;;;18.42;;
64395;SDS011;50717;53.360;6.290;2022-12-04T09:06:29;47.67;;;20.23;;
64395;SDS011;50717;53.360;6.290;2022-12-04T09:08:56;44.08;;;18.35;;
64395;SDS011;50717;53.360;6.290;2022-12-04T09:13:49;50.50;;;19.80;;
64395;SDS011;50717;53.360;6.290;2022-12-04T09:16:20;48.58;;;19.58;;
64395;SDS011;50717;53.360;6.290;2022-12-04T09:18:47;45.22;;;18.48;;
64395;SDS011;50717;53.360;6.290;2022-12-04T09:21:14;51.10;;;19.45;;
64395;SDS011;50717;53.360;6.290;2022-12-04T09:23:41;47.55;;;18.80;;
64395;SDS011;50717;53.360;6.290;2022-12-04T09:26:24;44.55;;;19.60;;
64395;SDS011;50717;53.360;6.290;2022-12-04T09:28:51;44.05;;;17.73;;
64395;SDS011;50717;53.360;6.290;2022-12-04T09:31:17;45.13;;;19.42;;
64395;SDS011;50717;53.360;6.290;2022-12-04T09:33:44;43.83;;;18.08;;
64395;SDS011;50717;53.360;6.290;2022-12-04T09:38:40;42.58;;;18.15;;
64395;SDS011;50717;53.360;6.290;2022-12-04T09:43:39;46.55;;;18.65;;
64395;SDS011;50717;53.360;6.290;2022-12-04T09:46:11;43.10;;;18.02;;
64395;SDS011;50717;53.360;6.290;2022-12-04T09:48:43;38.65;;;16.73;;
64395;SDS011;50717;53.360;6.290;2022-12-04T09:51:13;38.65;;;16.23;;
64395;SDS011;50717;53.360;6.290;2022-12-04T09:53:53;38.03;;;15.93;;
64395;SDS011;50717;53.360;6.290;2022-12-04T09:56:20;36.70;;;16.20;;
64395;SDS011;50717;53.360;6.290;2022-12-04T10:01:57;31.25;;;14.13;;
64395;SDS011;50717;53.360;6.290;2022-12-04T10:04:44;36.55;;;16.38;;
64395;SDS011;50717;53.360;6.290;2022-12-04T10:07:15;34.17;;;16.33;;
64395;SDS011;50717;53.360;6.290;2022-12-04T10:09:47;39.17;;;15.52;;
64395;SDS011;50717;53.360;6.290;2022-12-04T10:17:42;37.58;;;15.05;;
64395;SDS011;50717;53.360;6.290;2022-12-04T10:25:50;36.70;;;14.80;;
64395;SDS011;50717;53.360;6.290;2022-12-04T10:28:37;35.65;;;15.25;;
64395;SDS011;50717;53.360;6.290;2022-12-04T10:31:08;33.80;;;14.70;;
64395;SDS011;50717;53.360;6.290;2022-12-04T10:33:39;33.80;;;14.13;;
64395;SDS011;50717;53.360;6.290;2022-12-04T10:36:10;34.65;;;14.23;;
64395;SDS011;50717;53.360;6.290;2022-12-04T10:38:39;32.28;;;14.43;;
64395;SDS011;50717;53.360;6.290;2022-12-04T10:41:09;33.92;;;14.52;;
64395;SDS011;50717;53.360;6.290;2022-12-04T10:43:44;30.33;;;13.35;;
64395;SDS011;50717;53.360;6.290;2022-12-04T10:48:46;28.83;;;11.90;;
64395;SDS011;50717;53.360;6.290;2022-12-04T10:51:15;26.63;;;12.43;;
64395;SDS011;50717;53.360;6.290;2022-12-04T10:53:43;24.85;;;11.82;;
64395;SDS011;50717;53.360;6.290;2022-12-04T10:56:17;24.55;;;11.25;;
64395;SDS011;50717;53.360;6.290;2022-12-04T10:58:58;23.65;;;10.88;;
64395;SDS011;50717;53.360;6.290;2022-12-04T11:01:24;24.75;;;11.73;;
64395;SDS011;50717;53.360;6.290;2022-12-04T11:03:58;24.52;;;11.57;;
64395;SDS011;50717;53.360;6.290;2022-12-04T11:06:25;23.17;;;11.38;;
64395;SDS011;50717;53.360;6.290;2022-12-04T11:08:51;25.60;;;11.63;;
64395;SDS011;50717;53.360;6.290;2022-12-04T11:11:22;27.08;;;12.65;;
64395;SDS011;50717;53.360;6.290;2022-12-04T11:13:48;26.98;;;12.70;;
64395;SDS011;50717;53.360;6.290;2022-12-04T11:16:35;22.85;;;11.30;;
64395;SDS011;50717;53.360;6.290;2022-12-04T11:19:17;24.42;;;11.20;;
64395;SDS011;50717;53.360;6.290;2022-12-04T11:21:43;24.27;;;12.13;;
64395;SDS011;50717;53.360;6.290;2022-12-04T11:24:20;23.17;;;11.00;;
64395;SDS011;50717;53.360;6.290;2022-12-04T11:26:48;24.75;;;10.70;;
64395;SDS011;50717;53.360;6.290;2022-12-04T11:29:15;24.85;;;11.88;;
64395;SDS011;50717;53.360;6.290;2022-12-04T11:31:48;24.77;;;11.80;;
64395;SDS011;50717;53.360;6.290;2022-12-04T11:34:17;19.73;;;9.88;;
64395;SDS011;50717;53.360;6.290;2022-12-04T11:36:46;22.63;;;10.40;;
64395;SDS011;50717;53.360;6.290;2022-12-04T11:39:17;24.58;;;11.45;;
64395;SDS011;50717;53.360;6.290;2022-12-04T11:41:46;22.33;;;10.63;;
64395;SDS011;50717;53.360;6.290;2022-12-04T11:44:19;28.13;;;11.48;;
64395;SDS011;50717;53.360;6.290;2022-12-04T11:46:51;23.70;;;11.30;;
64395;SDS011;50717;53.360;6.290;2022-12-04T11:49:21;25.70;;;12.05;;
64395;SDS011;50717;53.360;6.290;2022-12-04T11:51:58;22.15;;;11.48;;
64395;SDS011;50717;53.360;6.290;2022-12-04T11:54:59;27.52;;;12.63;;
64395;SDS011;50717;53.360;6.290;2022-12-04T12:00:42;24.77;;;12.65;;
64395;SDS011;50717;53.360;6.290;2022-12-04T12:03:10;27.40;;;12.95;;
64395;SDS011;50717;53.360;6.290;2022-12-04T12:12:18;30.17;;;14.60;;
64395;SDS011;50717;53.360;6.290;2022-12-04T12:17:17;29.07;;;14.73;;
64395;SDS011;50717;53.360;6.290;2022-12-04T12:33:45;26.13;;;13.90;;
64395;SDS011;50717;53.360;6.290;2022-12-04T12:36:16;24.48;;;13.85;;
64395;SDS011;50717;53.360;6.290;2022-12-04T12:39:02;29.67;;;14.80;;
64395;SDS011;50717;53.360;6.290;2022-12-04T12:41:31;28.33;;;14.45;;
64395;SDS011;50717;53.360;6.290;2022-12-04T12:46:49;27.67;;;13.07;;
64395;SDS011;50717;53.360;6.290;2022-12-04T12:51:54;25.20;;;14.00;;
64395;SDS011;50717;53.360;6.290;2022-12-04T12:54:42;27.08;;;13.68;;
64395;SDS011;50717;53.360;6.290;2022-12-04T12:59:36;24.67;;;13.47;;
64395;SDS011;50717;53.360;6.290;2022-12-04T13:04:51;26.25;;;13.82;;
64395;SDS011;50717;53.360;6.290;2022-12-04T13:07:22;27.75;;;15.00;;
64395;SDS011;50717;53.360;6.290;2022-12-04T13:12:51;27.88;;;13.82;;
64395;SDS011;50717;53.360;6.290;2022-12-04T13:15:40;26.98;;;13.57;;
64395;SDS011;50717;53.360;6.290;2022-12-04T13:18:32;30.08;;;15.20;;
64395;SDS011;50717;53.360;6.290;2022-12-04T13:21:05;31.90;;;15.65;;
64395;SDS011;50717;53.360;6.290;2022-12-04T13:23:49;33.00;;;16.00;;
64395;SDS011;50717;53.360;6.290;2022-12-04T13:29:03;31.45;;;15.52;;
64395;SDS011;50717;53.360;6.290;2022-12-04T13:31:55;33.67;;;15.80;;
64395;SDS011;50717;53.360;6.290;2022-12-04T13:39:39;37.15;;;17.20;;
64395;SDS011;50717;53.360;6.290;2022-12-04T13:42:49;31.52;;;15.40;;
64395;SDS011;50717;53.360;6.290;2022-12-04T13:45:25;34.78;;;16.52;;
64395;SDS011;50717;53.360;6.290;2022-12-04T13:47:56;34.88;;;16.60;;
64395;SDS011;50717;53.360;6.290;2022-12-04T13:50:42;33.20;;;16.75;;
64395;SDS011;50717;53.360;6.290;2022-12-04T13:55:54;37.72;;;17.00;;
64395;SDS011;50717;53.360;6.290;2022-12-04T13:58:22;35.10;;;17.17;;
64395;SDS011;50717;53.360;6.290;2022-12-04T14:00:58;32.30;;;16.63;;
64395;SDS011;50717;53.360;6.290;2022-12-04T14:03:36;38.00;;;17.08;;
64395;SDS011;50717;53.360;6.290;2022-12-04T14:06:24;35.53;;;16.92;;
64395;SDS011;50717;53.360;6.290;2022-12-04T14:08:57;37.63;;;17.23;;
64395;SDS011;50717;53.360;6.290;2022-12-04T14:11:25;39.35;;;18.15;;
64395;SDS011;50717;53.360;6.290;2022-12-04T14:13:58;35.33;;;17.55;;
64395;SDS011;50717;53.360;6.290;2022-12-04T14:16:25;40.20;;;18.35;;
64395;SDS011;50717;53.360;6.290;2022-12-04T14:18:55;37.70;;;18.38;;
64395;SDS011;50717;53.360;6.290;2022-12-04T14:21:23;34.67;;;16.75;;
64395;SDS011;50717;53.360;6.290;2022-12-04T14:23:49;31.02;;;15.60;;
64395;SDS011;50717;53.360;6.290;2022-12-04T14:26:26;34.70;;;16.90;;
64395;SDS011;50717;53.360;6.290;2022-12-04T14:31:52;29.92;;;16.08;;
64395;SDS011;50717;53.360;6.290;2022-12-04T14:34:25;31.08;;;15.35;;
64395;SDS011;50717;53.360;6.290;2022-12-04T14:36:57;31.20;;;16.88;;
64395;SDS011;50717;53.360;6.290;2022-12-04T14:39:26;30.77;;;17.75;;
64395;SDS011;50717;53.360;6.290;2022-12-04T14:44:43;34.08;;;16.38;;
64395;SDS011;50717;53.360;6.290;2022-12-04T14:49:45;37.42;;;17.23;;
64395;SDS011;50717;53.360;6.290;2022-12-04T15:00:24;34.72;;;16.98;;
64395;SDS011;50717;53.360;6.290;2022-12-04T15:02:54;39.45;;;18.33;;
64395;SDS011;50717;53.360;6.290;2022-12-04T15:05:30;35.45;;;18.35;;
64395;SDS011;50717;53.360;6.290;2022-12-04T15:08:03;43.15;;;20.48;;
64395;SDS011;50717;53.360;6.290;2022-12-04T15:10:31;41.25;;;19.77;;
64395;SDS011;50717;53.360;6.290;2022-12-04T15:13:29;38.25;;;19.75;;
64395;SDS011;50717;53.360;6.290;2022-12-04T15:15:56;43.53;;;19.50;;
64395;SDS011;50717;53.360;6.290;2022-12-04T15:18:22;40.90;;;19.15;;
64395;SDS011;50717;53.360;6.290;2022-12-04T15:25:49;44.13;;;19.65;;
64395;SDS011;50717;53.360;6.290;2022-12-04T15:28:17;42.20;;;19.45;;
64395;SDS011;50717;53.360;6.290;2022-12-04T15:30:46;42.42;;;19.52;;
64395;SDS011;50717;53.360;6.290;2022-12-04T15:33:32;41.55;;;19.65;;
64395;SDS011;50717;53.360;6.290;2022-12-04T15:36:04;41.63;;;19.25;;
64395;SDS011;50717;53.360;6.290;2022-12-04T15:38:41;42.25;;;19.98;;
64395;SDS011;50717;53.360;6.290;2022-12-04T15:41:21;41.60;;;19.73;;
64395;SDS011;50717;53.360;6.290;2022-12-04T15:43:55;40.08;;;20.20;;
64395;SDS011;50717;53.360;6.290;2022-12-04T15:46:22;38.70;;;18.88;;
64395;SDS011;50717;53.360;6.290;2022-12-04T15:48:48;38.88;;;17.95;;
64395;SDS011;50717;53.360;6.290;2022-12-04T15:51:14;39.15;;;19.13;;
64395;SDS011;50717;53.360;6.290;2022-12-04T15:53:44;37.35;;;19.40;;
64395;SDS011;50717;53.360;6.290;2022-12-04T15:56:17;40.33;;;19.48;;
64395;SDS011;50717;53.360;6.290;2022-12-04T15:58:55;50.25;;;19.60;;
64395;SDS011;50717;53.360;6.290;2022-12-04T16:01:23;40.40;;;20.08;;
64395;SDS011;50717;53.360;6.290;2022-12-04T16:03:50;45.30;;;22.48;;
64395;SDS011;50717;53.360;6.290;2022-12-04T16:08:43;45.70;;;21.63;;
64395;SDS011;50717;53.360;6.290;2022-12-04T16:13:42;42.63;;;20.75;;
64395;SDS011;50717;53.360;6.290;2022-12-04T16:16:12;47.92;;;22.15;;
64395;SDS011;50717;53.360;6.290;2022-12-04T16:18:44;47.73;;;22.63;;
64395;SDS011;50717;53.360;6.290;2022-12-04T16:21:14;45.08;;;21.58;;
64395;SDS011;50717;53.360;6.290;2022-12-04T16:23:41;44.47;;;20.88;;
64395;SDS011;50717;53.360;6.290;2022-12-04T16:26:17;43.47;;;21.83;;
64395;SDS011;50717;53.360;6.290;2022-12-04T16:28:43;45.30;;;21.75;;
64395;SDS011;50717;53.360;6.290;2022-12-04T16:33:36;43.15;;;20.83;;
64395;SDS011;50717;53.360;6.290;2022-12-04T16:36:04;45.95;;;22.75;;
64395;SDS011;50717;53.360;6.290;2022-12-04T16:38:30;43.80;;;22.95;;
64395;SDS011;50717;53.360;6.290;2022-12-04T16:40:55;45.58;;;21.20;;
64395;SDS011;50717;53.360;6.290;2022-12-04T16:43:21;42.88;;;21.65;;
64395;SDS011;50717;53.360;6.290;2022-12-04T16:45:52;44.58;;;21.85;;
64395;SDS011;50717;53.360;6.290;2022-12-04T16:48:18;44.97;;;20.65;;
64395;SDS011;50717;53.360;6.290;2022-12-04T16:50:45;41.45;;;21.23;;
64395;SDS011;50717;53.360;6.290;2022-12-04T16:53:14;41.22;;;20.17;;
64395;SDS011;50717;53.360;6.290;2022-12-04T16:55:43;49.67;;;22.65;;
64395;SDS011;50717;53.360;6.290;2022-12-04T16:58:10;43.55;;;21.67;;
64395;SDS011;50717;53.360;6.290;2022-12-04T17:00:36;41.38;;;21.10;;
64395;SDS011;50717;53.360;6.290;2022-12-04T17:03:03;40.10;;;20.33;;
64395;SDS011;50717;53.360;6.290;2022-12-04T17:05:29;39.67;;;19.65;;
64395;SDS011;50717;53.360;6.290;2022-12-04T17:07:57;43.55;;;22.02;;
64395;SDS011;50717;53.360;6.290;2022-12-04T17:10:23;44.47;;;20.88;;
64395;SDS011;50717;53.360;6.290;2022-12-04T17:12:53;39.45;;;20.55;;
64395;SDS011;50717;53.360;6.290;2022-12-04T17:15:19;41.70;;;19.90;;
64395;SDS011;50717;53.360;6.290;2022-12-04T17:20:12;43.63;;;19.15;;